createdAt,value
2022-12-14T00:01:16.728Z,-3.81
2022-12-14T00:03:43.885Z,-3.68
2022-12-14T00:06:12.420Z,-3.76
2022-12-14T00:08:41.857Z,-3.84
2022-12-14T00:11:09.591Z,-3.96
2022-12-14T00:13:37.140Z,-4.04
2022-12-14T00:16:13.211Z,-3.92
2022-12-14T00:18:40.891Z,-3.97
2022-12-14T00:21:09.921Z,-4.01
2022-12-14T00:23:39.292Z,-4.01
2022-12-14T00:26:18.972Z,-3.95
2022-12-14T00:28:46.489Z,-3.88
2022-12-14T00:31:13.692Z,-4.00
2022-12-14T00:33:40.459Z,-4.05
2022-12-14T00:36:08.252Z,-3.96
2022-12-14T00:38:34.995Z,-3.99
2022-12-14T00:41:01.967Z,-4.01
2022-12-14T00:43:28.489Z,-4.03
2022-12-14T00:45:55.033Z,-4.05
2022-12-14T00:48:23.731Z,-4.04
2022-12-14T00:50:51.804Z,-4.03
2022-12-14T00:53:19.612Z,-4.04
2022-12-14T00:55:49.318Z,-4.01
2022-12-14T00:58:19.139Z,-4.08
2022-12-14T01:00:45.770Z,-4.13
2022-12-14T01:03:12.994Z,-4.22
2022-12-14T01:05:39.935Z,-4.29
2022-12-14T01:08:07.206Z,-4.23
2022-12-14T01:10:33.688Z,-4.21
2022-12-14T01:13:00.115Z,-4.23
2022-12-14T01:15:26.555Z,-4.25
2022-12-14T01:17:53.066Z,-4.36
2022-12-14T01:20:19.558Z,-4.25
2022-12-14T01:22:46.058Z,-4.31
2022-12-14T01:25:12.736Z,-4.27
2022-12-14T01:27:39.183Z,-4.24
2022-12-14T01:30:05.978Z,-4.31
2022-12-14T01:32:34.410Z,-4.28
2022-12-14T01:35:00.808Z,-4.26
2022-12-14T01:37:27.214Z,-4.23
2022-12-14T01:39:53.633Z,-4.43
2022-12-14T01:42:20.075Z,-4.42
2022-12-14T01:44:53.124Z,-4.38
2022-12-14T01:47:30.484Z,-4.39
2022-12-14T01:50:05.231Z,-4.41
2022-12-14T01:52:52.377Z,-4.55
2022-12-14T01:55:23.576Z,-4.52
2022-12-14T01:57:58.229Z,-4.56
2022-12-14T02:00:24.694Z,-4.58
2022-12-14T02:02:58.669Z,-4.66
2022-12-14T02:05:25.698Z,-4.75
2022-12-14T02:07:54.044Z,-4.93
2022-12-14T02:10:21.501Z,-4.59
2022-12-14T02:13:00.703Z,-4.71
2022-12-14T02:15:27.619Z,-4.75
2022-12-14T02:17:54.124Z,-4.68
2022-12-14T02:20:21.787Z,-4.74
2022-12-14T02:23:03.379Z,-4.70
2022-12-14T02:25:45.057Z,-4.80
2022-12-14T02:28:44.936Z,-4.75
2022-12-14T02:31:31.818Z,-4.73
2022-12-14T02:34:05.805Z,-4.81
2022-12-14T02:37:01.429Z,-4.88
2022-12-14T02:39:33.794Z,-5.00
2022-12-14T02:42:24.433Z,-5.02
2022-12-14T02:45:06.230Z,-4.92
2022-12-14T02:47:40.450Z,-4.88
2022-12-14T02:50:12.735Z,-4.90
2022-12-14T02:52:47.041Z,-4.95
2022-12-14T02:55:37.088Z,-5.02
2022-12-14T02:58:07.150Z,-5.03
2022-12-14T03:00:35.083Z,-4.99
2022-12-14T03:03:02.075Z,-5.00
2022-12-14T03:05:28.836Z,-4.99
2022-12-14T03:08:06.417Z,-4.95
2022-12-14T03:10:44.015Z,-4.99
2022-12-14T03:13:19.930Z,-5.09
2022-12-14T03:15:50.648Z,-5.14
2022-12-14T03:18:18.788Z,-5.19
2022-12-14T03:20:48.358Z,-5.14
2022-12-14T03:23:20.863Z,-5.11
2022-12-14T03:26:05.345Z,-5.03
2022-12-14T03:29:01.048Z,-5.07
2022-12-14T03:31:35.182Z,-5.10
2022-12-14T03:34:04.025Z,-5.07
2022-12-14T03:36:36.084Z,-5.16
2022-12-14T03:39:04.607Z,-5.17
2022-12-14T03:41:38.449Z,-5.17
2022-12-14T03:44:26.693Z,-5.26
2022-12-14T03:46:57.684Z,-5.35
2022-12-14T03:49:53.064Z,-5.37
2022-12-14T03:52:35.628Z,-5.34
2022-12-14T03:55:16.642Z,-5.29
2022-12-14T03:57:57.011Z,-5.30
2022-12-14T04:00:24.884Z,-5.27
2022-12-14T04:03:27.403Z,-5.32
2022-12-14T04:06:05.318Z,-5.34
2022-12-14T04:08:41.640Z,-5.30
2022-12-14T04:11:30.305Z,-5.19
2022-12-14T04:14:25.441Z,-5.24
2022-12-14T04:17:10.670Z,-5.29
2022-12-14T04:19:45.927Z,-5.43
2022-12-14T04:22:18.718Z,-5.41
2022-12-14T04:25:26.765Z,-5.48
2022-12-14T04:28:53.714Z,-5.56
2022-12-14T04:31:21.574Z,-5.47
2022-12-14T04:33:53.288Z,-5.46
2022-12-14T04:36:30.340Z,-5.55
2022-12-14T04:39:03.102Z,-5.50
2022-12-14T04:41:34.627Z,-5.44
2022-12-14T04:44:06.019Z,-5.49
2022-12-14T04:46:40.295Z,-5.41
2022-12-14T04:49:35.069Z,-5.34
2022-12-14T04:52:21.911Z,-5.20
2022-12-14T04:55:12.463Z,-5.24
2022-12-14T04:57:54.707Z,-5.29
2022-12-14T05:00:21.147Z,-5.16
2022-12-14T05:03:01.278Z,-5.13
2022-12-14T05:05:44.035Z,-5.13
2022-12-14T05:08:17.616Z,-5.10
2022-12-14T05:10:48.608Z,-5.10
2022-12-14T05:13:20.814Z,-5.15
2022-12-14T05:15:50.603Z,-5.17
2022-12-14T05:18:17.492Z,-5.18
2022-12-14T05:20:43.901Z,-5.16
2022-12-14T05:23:10.302Z,-4.91
2022-12-14T05:25:36.754Z,-4.93
2022-12-14T05:28:03.280Z,-4.92
2022-12-14T05:30:30.077Z,-4.91
2022-12-14T05:32:56.590Z,-5.03
2022-12-14T05:35:23.223Z,-5.01
2022-12-14T05:37:49.674Z,-5.06
2022-12-14T05:40:16.473Z,-5.11
2022-12-14T05:42:46.104Z,-5.16
2022-12-14T05:45:14.220Z,-5.16
2022-12-14T05:47:40.664Z,-5.21
2022-12-14T05:50:07.699Z,-5.25
2022-12-14T05:52:34.276Z,-5.24
2022-12-14T05:55:04.183Z,-5.23
2022-12-14T05:57:31.477Z,-5.27
2022-12-14T05:59:57.912Z,-5.38
2022-12-14T06:02:27.524Z,-5.26
2022-12-14T06:04:54.044Z,-5.25
2022-12-14T06:07:25.914Z,-5.32
2022-12-14T06:09:53.984Z,-5.43
2022-12-14T06:12:20.436Z,-5.58
2022-12-14T06:14:46.951Z,-5.57
2022-12-14T06:17:13.392Z,-5.60
2022-12-14T06:19:39.806Z,-5.51
2022-12-14T06:22:06.281Z,-5.47
2022-12-14T06:24:32.744Z,-5.41
2022-12-14T06:26:59.216Z,-5.45
2022-12-14T06:29:26.132Z,-5.52
2022-12-14T06:31:52.715Z,-5.59
2022-12-14T06:34:21.299Z,-5.62
2022-12-14T06:36:51.534Z,-5.64
2022-12-14T06:39:18.005Z,-5.62
2022-12-14T06:41:44.744Z,-5.59
2022-12-14T06:44:13.321Z,-5.49
2022-12-14T06:46:40.492Z,-5.48
2022-12-14T06:49:07.332Z,-5.49
2022-12-14T06:51:39.608Z,-5.49
2022-12-14T06:54:06.403Z,-5.55
2022-12-14T06:56:33.324Z,-5.61
2022-12-14T06:58:59.738Z,-5.68
2022-12-14T07:01:26.350Z,-5.74
2022-12-14T07:03:55.128Z,-5.74
2022-12-14T07:06:22.680Z,-5.74
2022-12-14T07:08:49.576Z,-5.76
2022-12-14T07:11:17.014Z,-5.79
2022-12-14T07:13:43.790Z,-5.76
2022-12-14T07:16:21.149Z,-5.78
2022-12-14T07:18:48.108Z,-5.80
2022-12-14T07:21:15.759Z,-5.81
2022-12-14T07:23:43.645Z,-5.77
2022-12-14T07:26:16.191Z,-5.76
2022-12-14T07:28:44.618Z,-5.70
2022-12-14T07:31:19.671Z,-5.81
2022-12-14T07:33:46.469Z,-5.85
2022-12-14T07:36:19.292Z,-5.88
2022-12-14T07:38:48.047Z,-5.93
2022-12-14T07:41:23.797Z,-5.94
2022-12-14T07:43:51.792Z,-5.92
2022-12-14T07:46:21.159Z,-5.86
2022-12-14T07:48:49.593Z,-5.78
2022-12-14T07:51:17.998Z,-5.75
2022-12-14T07:53:44.546Z,-5.76
2022-12-14T07:56:13.012Z,-5.74
2022-12-14T07:58:39.550Z,-5.67
2022-12-14T08:01:16.290Z,-5.63
2022-12-14T08:03:45.675Z,-5.60
2022-12-14T08:06:13.609Z,-5.55
2022-12-14T08:08:41.030Z,-5.54
2022-12-14T08:11:08.257Z,-5.49
2022-12-14T08:13:34.951Z,-5.54
2022-12-14T08:16:11.217Z,-5.54
2022-12-14T08:18:37.993Z,-5.49
2022-12-14T08:21:06.460Z,-5.47
2022-12-14T08:23:33.820Z,-5.39
2022-12-14T08:26:01.258Z,-5.33
2022-12-14T08:28:29.094Z,-5.20
2022-12-14T08:30:55.938Z,-5.08
2022-12-14T08:33:24.453Z,-4.99
2022-12-14T08:35:50.914Z,-4.91
2022-12-14T08:38:17.812Z,-4.90
2022-12-14T08:40:44.212Z,-4.79
2022-12-14T08:43:10.692Z,-4.67
2022-12-14T08:45:37.122Z,-4.37
2022-12-14T08:48:04.689Z,-4.35
2022-12-14T08:50:31.230Z,-4.08
2022-12-14T08:52:57.940Z,-4.09
2022-12-14T08:55:29.201Z,-3.98
2022-12-14T08:57:58.186Z,-3.85
2022-12-14T09:00:24.762Z,-3.86
2022-12-14T09:02:51.538Z,-3.73
2022-12-14T09:05:18.120Z,-3.67
2022-12-14T09:07:45.636Z,-3.47
2022-12-14T09:10:13.754Z,-3.24
2022-12-14T09:12:40.730Z,-3.27
2022-12-14T09:15:08.178Z,-3.18
2022-12-14T09:17:34.753Z,-3.10
2022-12-14T09:20:01.235Z,-3.08
2022-12-14T09:22:27.761Z,-3.02
2022-12-14T09:24:54.538Z,-2.98
2022-12-14T09:27:22.378Z,-2.94
2022-12-14T09:29:49.863Z,-2.79
2022-12-14T09:32:16.945Z,-2.74
2022-12-14T09:34:43.382Z,-2.64
2022-12-14T09:37:10.310Z,-2.59
2022-12-14T09:39:36.912Z,-2.57
2022-12-14T09:42:38.049Z,-2.44
2022-12-14T09:45:04.518Z,-2.39
2022-12-14T09:48:17.028Z,-2.37
2022-12-14T09:50:47.299Z,-2.25
2022-12-14T09:53:14.667Z,-1.74
2022-12-14T09:55:50.203Z,-1.69
2022-12-14T09:58:20.268Z,-1.66
2022-12-14T10:00:53.784Z,-1.66
2022-12-14T10:03:49.897Z,-1.58
2022-12-14T10:06:39.295Z,-1.49
2022-12-14T10:09:38.615Z,-1.57
2022-12-14T10:12:22.056Z,-1.44
2022-12-14T10:14:58.955Z,-1.49
2022-12-14T10:18:03.462Z,-1.46
2022-12-14T10:20:37.540Z,-1.36
2022-12-14T10:23:04.175Z,-1.34
2022-12-14T10:25:35.846Z,-1.22
2022-12-14T10:28:20.593Z,-1.18
2022-12-14T10:30:48.370Z,-1.07
2022-12-14T10:33:29.452Z,-1.05
2022-12-14T10:36:00.200Z,-1.01
2022-12-14T10:38:49.927Z,-1.03
2022-12-14T10:41:49.567Z,-0.89
2022-12-14T10:44:31.109Z,-0.87
2022-12-14T10:47:13.780Z,-0.80
2022-12-14T10:49:47.155Z,-0.77
2022-12-14T10:52:22.959Z,-0.73
2022-12-14T10:54:54.682Z,-0.74
2022-12-14T10:57:27.604Z,-0.73
2022-12-14T11:00:07.715Z,-0.64
2022-12-14T11:02:40.022Z,-0.52
2022-12-14T11:05:32.526Z,-0.62
2022-12-14T11:08:02.538Z,-0.49
2022-12-14T11:10:31.378Z,-0.46
2022-12-14T11:13:05.793Z,-0.32
2022-12-14T11:15:37.067Z,-0.22
2022-12-14T11:18:15.674Z,-0.23
2022-12-14T11:20:56.477Z,-0.20
2022-12-14T11:23:37.880Z,-0.18
2022-12-14T11:26:13.601Z,-0.15
2022-12-14T11:28:49.916Z,-0.02
2022-12-14T11:31:24.797Z,0.02
2022-12-14T11:33:52.884Z,-0.01
2022-12-14T11:36:34.478Z,0.01
2022-12-14T11:39:13.298Z,0.04
2022-12-14T11:41:46.837Z,0.08
2022-12-14T11:44:16.193Z,0.04
2022-12-14T11:46:57.890Z,0.10
2022-12-14T11:49:39.514Z,0.04
2022-12-14T11:52:06.056Z,0.20
2022-12-14T11:54:33.129Z,0.16
2022-12-14T11:57:04.254Z,0.08
2022-12-14T11:59:45.253Z,0.08
2022-12-14T12:02:17.872Z,0.03
2022-12-14T12:04:56.145Z,0.09
2022-12-14T12:07:29.762Z,-0.04
2022-12-14T12:10:01.446Z,0.02
2022-12-14T12:12:28.177Z,0.07
2022-12-14T12:14:55.888Z,0.12
2022-12-14T12:17:37.884Z,0.08
2022-12-14T12:20:13.029Z,0.06
2022-12-14T12:22:43.564Z,0.02
2022-12-14T12:25:26.669Z,0.32
2022-12-14T12:28:04.475Z,0.38
2022-12-14T12:30:33.616Z,0.15
2022-12-14T12:33:21.911Z,0.15
2022-12-14T12:35:54.710Z,0.25
2022-12-14T12:38:42.114Z,0.18
2022-12-14T12:41:25.813Z,0.18
2022-12-14T12:43:56.419Z,0.24
2022-12-14T12:46:33.561Z,0.26
2022-12-14T12:49:10.183Z,0.25
2022-12-14T12:51:46.156Z,0.15
2022-12-14T12:54:18.035Z,0.20
2022-12-14T12:56:48.118Z,0.27
2022-12-14T12:59:46.669Z,0.17
2022-12-14T13:02:30.516Z,0.19
2022-12-14T13:05:10.868Z,0.22
2022-12-14T13:07:49.536Z,0.21
2022-12-14T13:10:21.193Z,0.25
2022-12-14T13:12:50.362Z,0.25
2022-12-14T13:15:29.815Z,0.34
2022-12-14T13:18:41.200Z,0.33
2022-12-14T13:21:34.954Z,0.29
2022-12-14T13:24:02.881Z,0.24
2022-12-14T13:27:03.000Z,0.25
2022-12-14T13:30:14.611Z,0.18
2022-12-14T13:32:44.138Z,0.18
2022-12-14T13:35:44.503Z,-0.01
2022-12-14T13:38:53.129Z,0.04
2022-12-14T13:41:28.085Z,0.11
2022-12-14T13:44:15.865Z,0.09
2022-12-14T13:46:42.878Z,0.07
2022-12-14T13:49:19.824Z,0.03
2022-12-14T13:51:50.185Z,0.02
2022-12-14T13:54:27.577Z,0.06
2022-12-14T13:57:13.692Z,0.06
2022-12-14T13:59:42.793Z,0.13
2022-12-14T14:02:29.432Z,0.12
2022-12-14T14:05:15.612Z,0.13
2022-12-14T14:07:58.860Z,0.13
2022-12-14T14:10:37.943Z,0.06
2022-12-14T14:13:27.467Z,-0.06
2022-12-14T14:16:26.819Z,-0.10
2022-12-14T14:18:55.416Z,0.00
2022-12-14T14:21:21.800Z,-0.05
2022-12-14T14:24:01.038Z,-0.01
2022-12-14T14:26:34.765Z,-0.09
2022-12-14T14:29:26.851Z,-0.13
2022-12-14T14:32:00.524Z,-0.26
2022-12-14T14:34:30.198Z,-0.45
2022-12-14T14:36:56.776Z,-0.58
2022-12-14T14:42:26.096Z,-0.74
2022-12-14T14:44:58.941Z,-0.91
2022-12-14T14:47:31.582Z,-0.99
2022-12-14T14:50:00.875Z,-1.09
2022-12-14T14:52:39.728Z,-1.11
2022-12-14T14:55:53.187Z,-1.14
2022-12-14T14:58:28.154Z,-1.32
2022-12-14T15:01:02.006Z,-1.43
2022-12-14T15:03:35.378Z,-1.59
2022-12-14T15:06:01.921Z,-1.66
2022-12-14T15:08:34.778Z,-1.85
2022-12-14T15:11:05.319Z,-1.91
2022-12-14T15:13:48.191Z,-1.99
2022-12-14T15:16:41.786Z,-2.06
2022-12-14T15:19:22.352Z,-2.14
2022-12-14T15:21:51.434Z,-2.20
2022-12-14T15:24:18.014Z,-2.15
2022-12-14T15:26:44.508Z,-2.20
2022-12-14T15:29:17.889Z,-2.36
2022-12-14T15:31:44.820Z,-2.43
2022-12-14T15:34:17.548Z,-2.51
2022-12-14T15:36:44.286Z,-2.53
2022-12-14T15:39:42.179Z,-2.56
2022-12-14T15:42:15.166Z,-2.52
2022-12-14T15:44:52.467Z,-2.50
2022-12-14T15:47:28.550Z,-2.56
2022-12-14T15:50:00.507Z,-2.66
2022-12-14T15:52:30.716Z,-2.60
2022-12-14T15:54:58.508Z,-2.73
2022-12-14T15:57:25.495Z,-2.81
2022-12-14T15:59:54.592Z,-2.85
2022-12-14T16:02:21.078Z,-2.91
2022-12-14T16:04:48.321Z,-2.78
2022-12-14T16:07:19.072Z,-2.73
2022-12-14T16:09:50.162Z,-2.83
2022-12-14T16:12:21.687Z,-2.97
2022-12-14T16:15:20.922Z,-3.04
2022-12-14T16:17:47.660Z,-2.99
2022-12-14T16:20:14.609Z,-3.15
2022-12-14T16:22:41.456Z,-3.19
2022-12-14T16:25:11.796Z,-3.39
2022-12-14T16:27:42.713Z,-3.34
2022-12-14T16:30:19.991Z,-3.37
2022-12-14T16:32:50.054Z,-3.34
2022-12-14T16:35:25.334Z,-3.23
2022-12-14T16:37:58.176Z,-3.13
2022-12-14T16:40:30.725Z,-3.21
2022-12-14T16:42:57.316Z,-3.23
2022-12-14T16:45:36.244Z,-3.22
2022-12-14T16:48:14.534Z,-3.03
2022-12-14T16:50:57.374Z,-3.06
2022-12-14T16:53:29.585Z,-3.18
2022-12-14T16:56:01.738Z,-3.43
2022-12-14T16:58:28.346Z,-3.50
2022-12-14T17:01:00.482Z,-3.56
2022-12-14T17:03:28.504Z,-3.62
2022-12-14T17:06:01.980Z,-3.73
2022-12-14T17:08:28.968Z,-3.86
2022-12-14T17:10:55.398Z,-3.78
2022-12-14T17:13:21.810Z,-3.77
2022-12-14T17:16:04.661Z,-3.73
2022-12-14T17:18:43.101Z,-3.77
2022-12-14T17:21:17.995Z,-3.67
2022-12-14T17:23:44.754Z,-3.59
2022-12-14T17:26:23.557Z,-3.64
2022-12-14T17:28:50.394Z,-3.50
2022-12-14T17:31:22.484Z,-3.57
2022-12-14T17:33:51.054Z,-3.64
2022-12-14T17:36:17.806Z,-3.72
2022-12-14T17:38:44.640Z,-3.85
2022-12-14T17:41:16.668Z,-3.76
2022-12-14T17:43:49.939Z,-3.94
2022-12-14T17:46:17.682Z,-3.76
2022-12-14T17:48:44.116Z,-3.93
2022-12-14T17:51:20.018Z,-3.88
2022-12-14T17:53:46.638Z,-3.84
2022-12-14T17:56:13.013Z,-3.72
2022-12-14T17:58:39.468Z,-3.79
2022-12-14T18:01:07.409Z,-3.78
2022-12-14T18:03:37.370Z,-3.78
2022-12-14T18:06:04.619Z,-3.74
2022-12-14T18:08:31.110Z,-3.78
2022-12-14T18:11:07.556Z,-3.88
2022-12-14T18:13:38.427Z,-3.58
2022-12-14T18:16:05.315Z,-3.51
2022-12-14T18:18:31.912Z,-3.62
2022-12-14T18:21:01.001Z,-3.65
2022-12-14T18:23:29.906Z,-3.74
2022-12-14T18:25:58.426Z,-3.77
2022-12-14T18:28:24.884Z,-3.77
2022-12-14T18:30:55.343Z,-3.87
2022-12-14T18:33:24.147Z,-3.89
2022-12-14T18:35:52.009Z,-4.00
2022-12-14T18:38:18.591Z,-3.89
2022-12-14T18:40:49.737Z,-3.87
2022-12-14T18:43:24.932Z,-3.96
2022-12-14T18:45:53.100Z,-4.06
2022-12-14T18:48:20.536Z,-4.00
2022-12-14T18:50:49.756Z,-4.14
2022-12-14T18:53:18.433Z,-4.19
2022-12-14T18:55:45.046Z,-4.24
2022-12-14T18:58:25.816Z,-4.14
2022-12-14T19:00:54.877Z,-4.09
2022-12-14T19:03:23.138Z,-4.13
2022-12-14T19:05:50.173Z,-4.20
2022-12-14T19:08:17.196Z,-4.32
2022-12-14T19:10:46.320Z,-4.33
2022-12-14T19:13:25.852Z,-4.45
2022-12-14T19:15:54.116Z,-4.49
2022-12-14T19:18:20.682Z,-4.43
2022-12-14T19:20:49.361Z,-4.35
2022-12-14T19:23:17.306Z,-4.21
2022-12-14T19:25:44.080Z,-4.15
2022-12-14T19:28:30.808Z,-4.10
2022-12-14T19:30:58.192Z,-4.22
2022-12-14T19:33:25.522Z,-4.31
2022-12-14T19:35:52.587Z,-4.44
2022-12-14T19:38:19.219Z,-4.55
2022-12-14T19:41:04.161Z,-4.61
2022-12-14T19:43:31.051Z,-4.54
2022-12-14T19:45:57.908Z,-4.41
2022-12-14T19:48:24.563Z,-4.40
2022-12-14T19:50:51.138Z,-4.46
2022-12-14T19:53:23.266Z,-4.63
2022-12-14T19:55:52.443Z,-4.70
2022-12-14T19:58:21.712Z,-4.76
2022-12-14T20:00:49.017Z,-4.97
2022-12-14T20:03:15.567Z,-4.92
2022-12-14T20:05:49.390Z,-4.74
2022-12-14T20:08:15.825Z,-4.64
2022-12-14T20:10:42.338Z,-4.65
2022-12-14T20:13:08.756Z,-4.85
2022-12-14T20:15:35.250Z,-5.00
2022-12-14T20:18:04.625Z,-5.01
2022-12-14T20:20:32.364Z,-5.01
2022-12-14T20:22:58.802Z,-5.04
2022-12-14T20:25:25.214Z,-4.92
2022-12-14T20:27:52.597Z,-4.99
2022-12-14T20:30:19.425Z,-5.00
2022-12-14T20:32:49.329Z,-5.00
2022-12-14T20:35:18.606Z,-5.02
2022-12-14T20:37:45.779Z,-5.11
2022-12-14T20:40:12.505Z,-5.21
2022-12-14T20:42:38.997Z,-5.26
2022-12-14T20:45:07.389Z,-5.17
2022-12-14T20:47:34.207Z,-5.13
2022-12-14T20:50:00.649Z,-5.10
2022-12-14T20:52:27.171Z,-4.91
2022-12-14T20:54:53.675Z,-4.95
2022-12-14T20:57:20.119Z,-4.99
2022-12-14T20:59:46.518Z,-4.82
2022-12-14T21:02:17.398Z,-4.89
2022-12-14T21:04:43.911Z,-4.87
2022-12-14T21:07:10.376Z,-4.83
2022-12-14T21:09:36.833Z,-4.84
2022-12-14T21:12:21.569Z,-4.88
2022-12-14T21:14:53.015Z,-4.89
2022-12-14T21:17:20.992Z,-4.85
2022-12-14T21:19:47.671Z,-4.81
2022-12-14T21:22:16.395Z,-4.87
2022-12-14T21:27:32.649Z,-4.94
2022-12-14T21:30:00.409Z,-4.88
2022-12-14T21:32:27.128Z,-4.80
2022-12-14T21:34:53.591Z,-4.75
2022-12-14T21:37:20.510Z,-4.78
2022-12-14T21:39:53.917Z,-4.88
2022-12-14T21:42:24.814Z,-4.91
2022-12-14T21:44:52.694Z,-4.87
2022-12-14T21:47:21.621Z,-4.90
2022-12-14T21:49:48.165Z,-5.02
2022-12-14T21:52:17.914Z,-5.07
2022-12-14T21:54:44.700Z,-5.01
2022-12-14T21:57:34.278Z,-5.13
2022-12-14T22:00:01.025Z,-5.09
2022-12-14T22:02:27.745Z,-5.16
2022-12-14T22:04:56.301Z,-5.09
2022-12-14T22:07:25.193Z,-4.99
2022-12-14T22:09:51.811Z,-5.03
2022-12-14T22:12:18.421Z,-4.96
2022-12-14T22:14:44.912Z,-4.94
2022-12-14T22:17:13.094Z,-4.94
2022-12-14T22:19:39.889Z,-4.91
2022-12-14T22:22:06.437Z,-4.92
2022-12-14T22:24:32.952Z,-4.94
2022-12-14T22:26:59.528Z,-4.96
2022-12-14T22:29:25.947Z,-5.03
2022-12-14T22:31:52.551Z,-4.96
2022-12-14T22:34:21.475Z,-4.94
2022-12-14T22:36:49.531Z,-4.89
2022-12-14T22:39:17.506Z,-4.92
2022-12-14T22:41:44.010Z,-4.86
2022-12-14T22:44:11.751Z,-4.76
2022-12-14T22:46:39.376Z,-4.78
2022-12-14T22:49:05.771Z,-4.82
2022-12-14T22:51:32.421Z,-4.85
2022-12-14T22:53:58.888Z,-4.80
2022-12-14T22:56:36.644Z,-4.84
2022-12-14T22:59:36.353Z,-4.79
2022-12-14T23:02:03.192Z,-4.84
2022-12-14T23:04:29.914Z,-4.73
2022-12-14T23:06:56.367Z,-4.84
2022-12-14T23:09:41.346Z,-4.66
2022-12-14T23:12:26.055Z,-4.61
2022-12-14T23:15:11.209Z,-4.44
2022-12-14T23:17:56.291Z,-4.21
2022-12-14T23:20:41.503Z,-4.08
2022-12-14T23:23:27.724Z,-4.09
2022-12-14T23:26:12.943Z,-4.14
2022-12-14T23:28:58.461Z,-4.10
2022-12-14T23:31:43.501Z,-4.06
2022-12-14T23:34:28.705Z,-4.13
2022-12-14T23:37:19.512Z,-4.18
2022-12-14T23:40:05.289Z,-4.19
2022-12-14T23:42:50.458Z,-4.19
2022-12-14T23:45:35.498Z,-4.26
2022-12-14T23:48:20.589Z,-4.24
2022-12-14T23:51:05.650Z,-4.26
2022-12-14T23:53:50.780Z,-4.35
2022-12-14T23:56:36.060Z,-4.32
2022-12-14T23:59:22.790Z,-4.27
